Time;durP1;ratioP1;P1;durP2;ratioP2;P2;SDS_P1;SDS_P2;PMS_P1;PMS_P2;Temp;Humidity;BMP_temperature;BMP_pressure;BME280_temperature;BME280_humidity;BME280_pressure;Samples;Min_cycle;Max_cycle;Signal;HPM_P1;HPM_P2
2022/01/19 00:01:56;;;;;;;21.50;4.30;;;;;;;1.14;83.94;102033.10;106273;1270;453872;-63
2022/01/19 00:04:27;;;;;;;20.90;4.20;;;;;;;1.15;83.91;102023.05;106712;1270;22678;-61
2022/01/19 00:06:58;;;;;;;22.60;4.00;;;;;;;1.16;83.92;102016.08;106692;1270;22760;-62
2022/01/19 00:09:30;;;;;;;16.60;3.90;;;;;;;1.16;83.96;102007.11;106592;1271;25867;-61
2022/01/19 00:12:01;;;;;;;22.10;4.90;;;;;;;1.17;84.04;102006.02;106767;1270;24312;-61
2022/01/19 00:14:35;;;;;;;22.30;4.50;;;;;;;1.18;84.05;101998.64;106800;1270;25460;-62
2022/01/19 00:17:06;;;;;;;17.10;4.90;;;;;;;1.20;84.15;102002.53;106515;1271;22625;-62
2022/01/19 00:19:37;;;;;;;21.20;5.20;;;;;;;1.21;84.17;101999.16;106580;1271;24246;-61
2022/01/19 00:22:09;;;;;;;19.80;5.30;;;;;;;1.22;84.17;101991.15;106643;1270;23868;-61
2022/01/19 00:24:42;;;;;;;23.80;6.20;;;;;;;1.22;84.08;101984.01;106599;1270;25363;-61
2022/01/19 00:27:13;;;;;;;31.80;7.50;;;;;;;1.23;84.17;101980.23;106642;1270;22571;-62
2022/01/19 00:29:45;;;;;;;40.70;8.20;;;;;;;1.23;84.09;101977.58;106503;1270;22705;-62
2022/01/19 00:32:16;;;;;;;28.90;7.20;;;;;;;1.24;84.13;101976.41;106663;1270;22788;-62
2022/01/19 00:34:47;;;;;;;32.70;8.70;;;;;;;1.24;84.18;101977.20;106699;1271;24368;-61
2022/01/19 00:37:18;;;;;;;44.70;10.80;;;;;;;1.24;84.29;101975.45;106637;1270;22509;-62
2022/01/19 00:39:50;;;;;;;41.50;9.40;;;;;;;1.26;84.33;101974.55;106642;1270;22555;-61
2022/01/19 00:42:22;;;;;;;32.00;7.60;;;;;;;1.29;84.31;101971.59;106600;1270;22553;-62
2022/01/19 00:44:53;;;;;;;29.30;10.00;;;;;;;1.31;84.29;101981.21;106699;1271;22541;-62
2022/01/19 00:47:25;;;;;;;29.00;8.40;;;;;;;1.31;84.22;101983.58;106551;1271;25369;-62
2022/01/19 00:49:56;;;;;;;34.70;10.00;;;;;;;1.32;84.30;101985.23;106476;1270;22528;-63
2022/01/19 00:52:28;;;;;;;37.00;11.20;;;;;;;1.33;84.25;101986.05;106418;1271;25337;-61
2022/01/19 00:54:59;;;;;;;39.90;12.40;;;;;;;1.34;84.22;101984.24;106364;1270;24801;-62
2022/01/19 00:57:30;;;;;;;40.70;14.20;;;;;;;1.32;84.20;101983.43;106630;1270;22564;-62
2022/01/19 01:00:02;;;;;;;44.40;13.60;;;;;;;1.31;84.32;101980.35;106678;1271;22691;-63
2022/01/19 01:02:33;;;;;;;39.50;14.00;;;;;;;1.31;84.17;101979.65;106701;1270;22630;-62
2022/01/19 01:05:06;;;;;;;37.60;14.90;;;;;;;1.30;84.27;101974.83;106727;1271;23952;-62
2022/01/19 01:07:38;;;;;;;39.40;12.90;;;;;;;1.28;84.23;101967.65;106677;1270;24310;-62
2022/01/19 01:10:13;;;;;;;39.60;13.70;;;;;;;1.27;84.27;101964.66;106637;1270;25375;-63
2022/01/19 01:12:49;;;;;;;39.90;13.60;;;;;;;1.27;84.33;101968.64;106713;1270;24281;-62
2022/01/19 01:15:46;;;;;;;40.50;13.50;;;;;;;1.26;84.40;101970.21;106645;1270;24354;-62
2022/01/19 01:18:21;;;;;;;45.40;12.90;;;;;;;1.26;84.54;101962.67;106623;1271;24013;-62
2022/01/19 01:20:54;;;;;;;41.70;13.30;;;;;;;1.25;84.47;101955.11;106685;1270;22534;-62
2022/01/19 01:23:28;;;;;;;42.70;14.40;;;;;;;1.24;84.52;101943.14;106721;1271;25519;-62
2022/01/19 01:25:59;;;;;;;42.30;13.90;;;;;;;1.23;84.68;101936.86;106680;1271;22683;-63
2022/01/19 01:28:31;;;;;;;41.40;14.50;;;;;;;1.24;84.68;101935.14;106591;1270;22532;-62
2022/01/19 01:31:04;;;;;;;35.20;12.70;;;;;;;1.25;84.67;101936.34;106634;1270;23046;-61
2022/01/19 01:33:35;;;;;;;44.80;13.80;;;;;;;1.27;84.65;101933.52;106778;1270;23983;-62
2022/01/19 01:36:07;;;;;;;34.50;12.30;;;;;;;1.28;84.70;101923.77;106651;1270;22532;-64
2022/01/19 01:38:39;;;;;;;38.70;12.40;;;;;;;1.28;84.81;101918.13;106868;1270;22492;-63
2022/01/19 01:41:14;;;;;;;34.20;11.30;;;;;;;1.29;84.81;101916.02;106822;1268;22786;-62
2022/01/19 01:43:46;;;;;;;37.70;11.10;;;;;;;1.28;84.77;101907.11;106684;1271;22782;-62
2022/01/19 01:46:30;;;;;;;36.20;10.60;;;;;;;1.28;84.81;101893.06;106761;1270;24234;-61
2022/01/19 01:49:01;;;;;;;37.20;11.80;;;;;;;1.29;84.93;101888.59;106580;1270;25385;-62
2022/01/19 01:54:22;;;;;;;34.00;10.80;;;;;;;1.31;84.91;101864.48;107527;1270;22563;-62
2022/01/19 01:56:54;;;;;;;42.30;11.40;;;;;;;1.32;84.95;101860.95;106835;1271;25317;-62
2022/01/19 01:59:25;;;;;;;29.30;9.20;;;;;;;1.32;84.96;101852.46;106694;1270;25068;-61
2022/01/19 02:01:56;;;;;;;29.60;9.50;;;;;;;1.32;84.92;101854.36;106727;1271;22551;-61
2022/01/19 02:04:30;;;;;;;28.20;9.30;;;;;;;1.32;84.97;101856.08;106641;1270;25237;-61
2022/01/19 02:07:29;;;;;;;29.60;10.10;;;;;;;1.34;85.10;101864.66;106718;1271;22637;-61
2022/01/19 02:10:02;;;;;;;30.00;7.80;;;;;;;1.36;85.17;101863.50;106658;1271;22563;-62
2022/01/19 02:23:50;;;;;;;26.20;6.90;;;;;;;1.39;85.14;101842.55;106611;1271;26642;-62
2022/01/19 02:26:27;;;;;;;32.80;8.80;;;;;;;1.39;85.10;101842.31;106656;1271;22686;-62
2022/01/19 02:29:12;;;;;;;28.60;7.50;;;;;;;1.39;85.15;101831.94;106606;1270;22533;-62
2022/01/19 02:36:34;;;;;;;29.30;8.80;;;;;;;1.40;85.08;101824.86;106613;1270;22717;-62
2022/01/19 02:40:33;;;;;;;29.00;9.50;;;;;;;1.39;85.01;101816.45;106553;1270;22604;-61
2022/01/19 02:43:09;;;;;;;27.20;8.40;;;;;;;1.38;85.03;101809.21;106828;1271;22573;-63
2022/01/19 02:51:22;;;;;;;29.10;8.30;;;;;;;1.40;84.96;101787.06;106161;1274;22549;-61
2022/01/19 02:53:53;;;;;;;25.10;8.20;;;;;;;1.41;85.05;101788.55;106296;1273;23877;-62
2022/01/19 02:56:28;;;;;;;30.50;8.60;;;;;;;1.42;84.99;101785.98;106234;1273;25302;-62
2022/01/19 02:59:12;;;;;;;26.30;7.60;;;;;;;1.44;85.03;101784.80;106198;1274;22553;-62
2022/01/19 03:10:18;;;;;;;25.30;6.80;;;;;;;1.47;84.89;101758.57;105909;1279;22791;-63
2022/01/19 03:12:50;;;;;;;29.00;7.20;;;;;;;1.47;84.88;101756.14;105893;1279;24248;-62
2022/01/19 03:15:22;;;;;;;25.50;6.60;;;;;;;1.47;84.86;101747.09;105936;1279;25263;-62
2022/01/19 03:17:57;;;;;;;22.40;6.60;;;;;;;1.47;84.85;101745.98;105994;1279;22568;-62
2022/01/19 03:20:29;;;;;;;24.20;5.60;;;;;;;1.47;84.83;101739.22;105829;1280;22556;-61
2022/01/19 03:23:03;;;;;;;22.10;5.10;;;;;;;1.46;84.82;101728.52;105909;1280;22544;-62
2022/01/19 03:25:38;;;;;;;22.00;5.60;;;;;;;1.45;84.81;101725.21;106026;1279;24437;-62
2022/01/19 03:28:09;;;;;;;20.00;5.50;;;;;;;1.44;84.65;101721.29;105971;1279;22562;-62
2022/01/19 03:30:40;;;;;;;20.60;5.20;;;;;;;1.43;84.71;101719.70;106187;1274;25421;-62
2022/01/19 03:33:13;;;;;;;23.80;5.00;;;;;;;1.41;84.74;101715.67;106428;1274;22571;-62
2022/01/19 03:35:45;;;;;;;21.70;5.30;;;;;;;1.42;84.76;101708.45;106176;1274;22561;-61
2022/01/19 03:38:16;;;;;;;19.60;4.90;;;;;;;1.42;84.78;101699.95;106238;1274;25500;-62
2022/01/19 03:40:48;;;;;;;20.40;5.60;;;;;;;1.42;84.72;101697.20;106260;1271;22619;-61
2022/01/19 03:43:21;;;;;;;18.30;5.50;;;;;;;1.43;84.75;101690.30;106724;1270;22615;-62
2022/01/19 03:45:54;;;;;;;19.20;6.10;;;;;;;1.45;84.78;101685.66;106562;1270;22558;-61
2022/01/19 03:51:17;;;;;;;16.20;4.60;;;;;;;1.48;84.78;101681.13;106542;1270;22558;-62
2022/01/19 03:53:49;;;;;;;21.10;5.40;;;;;;;1.48;84.72;101679.57;106628;1270;22843;-62
2022/01/19 03:56:20;;;;;;;13.60;3.80;;;;;;;1.49;84.67;101671.55;106683;1270;22555;-62
2022/01/19 03:58:51;;;;;;;17.10;3.60;;;;;;;1.50;84.71;101674.23;106688;1271;22551;-62
2022/01/19 04:01:22;;;;;;;18.80;4.00;;;;;;;1.49;84.71;101670.45;106741;1270;22526;-62
2022/01/19 04:04:14;;;;;;;18.60;5.00;;;;;;;1.51;84.74;101668.90;106649;1270;25395;-63
2022/01/19 04:06:56;;;;;;;17.20;4.20;;;;;;;1.52;84.75;101667.80;106621;1270;22608;-62
2022/01/19 04:09:27;;;;;;;16.50;4.10;;;;;;;1.52;84.76;101662.85;106604;1271;22646;-61
2022/01/19 04:11:59;;;;;;;16.00;3.50;;;;;;;1.52;84.71;101660.17;106541;1270;22532;-62
2022/01/19 04:14:30;;;;;;;18.40;3.80;;;;;;;1.54;84.65;101654.52;106589;1270;26619;-62
2022/01/19 04:17:03;;;;;;;14.90;3.90;;;;;;;1.54;84.60;101652.08;106615;1270;26268;-61
2022/01/19 04:19:42;;;;;;;19.50;4.50;;;;;;;1.54;84.65;101652.23;106752;1270;24320;-61
2022/01/19 04:22:17;;;;;;;22.80;4.40;;;;;;;1.54;84.62;101651.30;106658;1271;24644;-61
2022/01/19 04:24:50;;;;;;;20.80;4.00;;;;;;;1.54;84.63;101654.91;106773;1270;22538;-61
2022/01/19 04:27:33;;;;;;;16.50;4.10;;;;;;;1.53;84.63;101655.52;106595;1270;25389;-61
2022/01/19 04:30:10;;;;;;;19.10;4.00;;;;;;;1.53;84.68;101653.66;106873;1271;22554;-62
2022/01/19 04:32:46;;;;;;;18.30;4.50;;;;;;;1.52;84.73;101648.77;107786;1270;25536;-62
2022/01/19 04:35:22;;;;;;;18.30;4.80;;;;;;;1.53;84.68;101648.61;106706;1271;25304;-62
2022/01/19 04:38:30;;;;;;;21.00;5.00;;;;;;;1.54;84.68;101648.62;106679;1271;25384;-62
2022/01/19 05:03:36;;;;;;;19.20;4.70;;;;;;;1.58;84.51;101620.64;105766;1279;22677;-61
2022/01/19 05:06:12;;;;;;;16.30;4.40;;;;;;;1.59;84.50;101617.35;105849;1279;22872;-62
2022/01/19 05:08:55;;;;;;;16.30;4.50;;;;;;;1.60;84.66;101617.20;105851;1279;22543;-61
2022/01/19 05:14:15;;;;;;;18.20;5.10;;;;;;;1.64;84.53;101613.29;105842;1279;25413;-62
2022/01/19 05:16:46;;;;;;;20.00;5.40;;;;;;;1.66;84.59;101609.13;105865;1279;26602;-62
2022/01/19 05:19:17;;;;;;;18.90;4.90;;;;;;;1.67;84.46;101609.70;105803;1279;22577;-62
2022/01/19 05:21:50;;;;;;;19.30;4.90;;;;;;;1.69;84.44;101601.11;106066;1276;25256;-62
2022/01/19 05:24:21;;;;;;;29.30;7.40;;;;;;;1.70;84.44;101597.34;106118;1276;22572;-62
2022/01/19 05:26:54;;;;;;;20.30;5.70;;;;;;;1.71;84.41;101587.05;105853;1271;25254;-62
2022/01/19 05:29:24;;;;;;;22.70;6.10;;;;;;;1.70;84.47;101586.90;106168;1271;25264;-62
2022/01/19 05:31:56;;;;;;;20.90;5.10;;;;;;;1.69;84.37;101579.58;106459;1271;24234;-62
2022/01/19 05:34:28;;;;;;;19.60;5.80;;;;;;;1.68;84.36;101577.29;106469;1271;22574;-62
2022/01/19 05:36:59;;;;;;;21.70;5.70;;;;;;;1.68;84.46;101572.03;106452;1271;25270;-61
2022/01/19 05:39:30;;;;;;;28.20;7.10;;;;;;;1.67;84.45;101570.68;106416;1270;22536;-61
2022/01/19 05:42:01;;;;;;;27.50;7.80;;;;;;;1.65;84.34;101573.42;106491;1271;23067;-62
2022/01/19 05:44:32;;;;;;;24.20;6.90;;;;;;;1.65;84.53;101575.92;106265;1271;24719;-63
2022/01/19 05:47:03;;;;;;;25.00;6.50;;;;;;;1.65;84.33;101570.27;106425;1271;24238;-63
2022/01/19 05:49:36;;;;;;;22.30;5.30;;;;;;;1.67;84.43;101562.34;106442;1271;22549;-69
2022/01/19 05:52:08;;;;;;;20.80;4.70;;;;;;;1.67;84.29;101557.30;106337;1271;25267;-63
2022/01/19 05:54:39;;;;;;;19.50;5.00;;;;;;;1.68;84.38;101550.94;106446;1271;24970;-63
2022/01/19 05:57:10;;;;;;;18.20;5.00;;;;;;;1.68;84.21;101552.12;106400;1271;25387;-62
2022/01/19 05:59:42;;;;;;;19.30;5.00;;;;;;;1.69;84.24;101544.73;106429;1270;22547;-60
2022/01/19 06:02:13;;;;;;;18.90;5.20;;;;;;;1.68;84.07;101540.95;106403;1270;25277;-62
2022/01/19 06:04:45;;;;;;;20.20;4.80;;;;;;;1.68;84.03;101541.74;106529;1271;22560;-59
2022/01/19 06:07:16;;;;;;;23.40;6.20;;;;;;;1.68;84.14;101539.55;106593;1271;22550;-60
2022/01/19 06:10:00;;;;;;;17.80;5.30;;;;;;;1.68;84.15;101538.60;106587;1271;26518;-60
2022/01/19 06:12:32;;;;;;;20.80;6.60;;;;;;;1.68;84.20;101536.08;106435;1271;22576;-59
2022/01/19 06:15:04;;;;;;;21.30;6.50;;;;;;;1.67;84.12;101535.91;106570;1271;25416;-59
2022/01/19 06:17:35;;;;;;;22.80;6.50;;;;;;;1.67;84.17;101528.91;106579;1271;24242;-60
2022/01/19 06:20:08;;;;;;;21.10;5.60;;;;;;;1.67;84.15;101521.44;106491;1271;22556;-60
2022/01/19 06:22:40;;;;;;;26.40;6.10;;;;;;;1.68;84.21;101516.10;109215;1270;25311;-61
2022/01/19 06:25:12;;;;;;;21.10;6.40;;;;;;;1.67;84.12;101519.17;106775;1271;27072;-61
2022/01/19 06:27:43;;;;;;;23.90;6.90;;;;;;;1.68;84.17;101517.83;106681;1271;22569;-59
2022/01/19 06:30:17;;;;;;;22.30;7.10;;;;;;;1.69;84.06;101519.24;106934;1271;23055;-59
2022/01/19 06:32:50;;;;;;;22.70;7.80;;;;;;;1.69;84.05;101515.56;106645;1271;22553;-59
2022/01/19 06:35:22;;;;;;;24.40;6.90;;;;;;;1.69;84.02;101511.16;106751;1271;25270;-61
2022/01/19 06:37:54;;;;;;;19.10;5.70;;;;;;;1.68;83.96;101510.91;106746;1270;25322;-59
2022/01/19 06:40:27;;;;;;;23.70;6.50;;;;;;;1.67;84.10;101508.61;106618;1270;22876;-60
2022/01/19 06:42:59;;;;;;;26.70;8.80;;;;;;;1.66;84.12;101500.67;106660;1271;25914;-59
2022/01/19 06:45:31;;;;;;;24.40;8.20;;;;;;;1.67;84.06;101496.27;106670;1271;22548;-59
2022/01/19 06:48:04;;;;;;;23.70;7.30;;;;;;;1.67;84.12;101493.76;106696;1271;24255;-59
2022/01/19 06:50:35;;;;;;;26.30;8.60;;;;;;;1.68;84.08;101487.95;106606;1271;22590;-58
2022/01/19 06:53:07;;;;;;;27.10;8.50;;;;;;;1.68;84.02;101486.61;106861;1271;22679;-59
2022/01/19 06:55:39;;;;;;;26.70;7.50;;;;;;;1.68;84.11;101480.94;106647;1270;23906;-59
2022/01/19 06:58:11;;;;;;;26.80;8.10;;;;;;;1.68;84.17;101476.21;106656;1271;23614;-58
2022/01/19 07:00:43;;;;;;;29.20;9.40;;;;;;;1.69;84.06;101481.65;106610;1271;22523;-60
2022/01/19 07:03:15;;;;;;;32.60;10.00;;;;;;;1.69;84.03;101486.69;106695;1271;24277;-59
2022/01/19 07:05:47;;;;;;;32.20;10.30;;;;;;;1.68;84.07;101484.95;106579;1271;22573;-59
2022/01/19 07:08:20;;;;;;;29.70;11.10;;;;;;;1.69;84.09;101481.58;107578;1271;26190;-61
2022/01/19 07:10:53;;;;;;;31.60;11.80;;;;;;;1.69;84.14;101478.27;107787;1271;24230;-62
2022/01/19 07:13:24;;;;;;;34.10;11.60;;;;;;;1.71;84.15;101470.81;107023;1271;25592;-60
2022/01/19 07:15:56;;;;;;;26.80;9.30;;;;;;;1.74;84.10;101469.47;106835;1269;26398;-60
2022/01/19 07:18:27;;;;;;;35.60;11.50;;;;;;;1.76;84.05;101469.16;106766;1271;25346;-60
2022/01/19 07:20:58;;;;;;;33.80;10.80;;;;;;;1.76;84.03;101468.85;106603;1271;25360;-59
2022/01/19 07:23:30;;;;;;;28.60;9.00;;;;;;;1.77;84.00;101470.41;106636;1271;25878;-60
2022/01/19 07:26:03;;;;;;;26.40;9.20;;;;;;;1.76;84.01;101465.47;106700;1271;22537;-60
2022/01/19 07:28:35;;;;;;;30.70;8.90;;;;;;;1.78;84.02;101464.92;106760;1270;22565;-60
2022/01/19 07:31:07;;;;;;;26.80;8.90;;;;;;;1.78;84.02;101458.95;106491;1271;25231;-60
2022/01/19 07:33:39;;;;;;;27.80;9.20;;;;;;;1.79;84.01;101453.44;106520;1271;25270;-59
2022/01/19 07:36:10;;;;;;;25.80;8.30;;;;;;;1.81;84.07;101448.25;106729;1271;25309;-60
2022/01/19 07:38:46;;;;;;;24.00;8.90;;;;;;;1.82;83.99;101445.27;106554;1271;22558;-61
2022/01/19 07:41:17;;;;;;;26.90;8.80;;;;;;;1.82;84.00;101445.58;106766;1271;24262;-60
2022/01/19 07:43:49;;;;;;;26.70;9.30;;;;;;;1.84;83.96;101439.61;106579;1271;22505;-59
2022/01/19 07:46:21;;;;;;;29.90;8.60;;;;;;;1.87;83.96;101432.52;106540;1271;25652;-59
2022/01/19 07:48:53;;;;;;;28.10;10.10;;;;;;;1.90;83.99;101427.58;106477;1271;22567;-59
2022/01/19 07:51:25;;;;;;;28.40;8.90;;;;;;;1.92;83.95;101428.06;106602;1271;22560;-59
2022/01/19 07:54:01;;;;;;;27.80;9.40;;;;;;;1.93;83.91;101426.73;106550;1271;25544;-60
2022/01/19 07:56:32;;;;;;;28.60;9.30;;;;;;;1.94;83.87;101427.57;106599;1271;22485;-58
2022/01/19 07:59:04;;;;;;;28.10;10.20;;;;;;;1.94;83.80;101421.30;106706;1271;22553;-60
2022/01/19 08:01:35;;;;;;;28.20;8.90;;;;;;;1.96;83.87;101415.30;106442;1271;22554;-60
2022/01/19 08:04:07;;;;;;;31.40;9.30;;;;;;;1.96;83.79;101409.25;106623;1271;25036;-58
2022/01/19 08:06:39;;;;;;;26.40;8.80;;;;;;;1.96;83.84;101405.55;106573;1271;22565;-59
2022/01/19 08:09:10;;;;;;;32.60;9.60;;;;;;;1.97;83.80;101407.27;106622;1271;22618;-59
2022/01/19 08:11:42;;;;;;;28.30;9.60;;;;;;;1.98;83.76;101409.34;106579;1271;26590;-60
2022/01/19 08:14:13;;;;;;;28.60;9.20;;;;;;;1.98;83.68;101408.55;106688;1271;23854;-59
2022/01/19 08:16:45;;;;;;;29.30;10.00;;;;;;;1.96;83.58;101404.85;106558;1271;22632;-59
2022/01/19 08:19:19;;;;;;;27.40;8.70;;;;;;;1.95;83.53;101404.92;106556;1271;22556;-60
2022/01/19 08:21:50;;;;;;;30.10;9.40;;;;;;;1.94;83.62;101402.25;106339;1271;22638;-59
2022/01/19 08:24:21;;;;;;;28.30;10.00;;;;;;;1.97;83.79;101399.64;106031;1271;22621;-61
2022/01/19 08:26:55;;;;;;;32.40;9.80;;;;;;;1.99;83.78;101395.95;105983;1271;22545;-59
2022/01/19 08:29:26;;;;;;;28.00;10.50;;;;;;;2.01;83.81;101391.55;105787;1271;22560;-62
2022/01/19 08:31:58;;;;;;;32.10;12.00;;;;;;;2.02;83.75;101389.19;105908;1271;25342;-60
2022/01/19 08:34:30;;;;;;;34.40;12.50;;;;;;;2.04;83.69;101390.06;106394;1271;24322;-59
2022/01/19 08:37:02;;;;;;;32.50;12.40;;;;;;;2.06;83.74;101386.44;105905;1271;22532;-60
2022/01/19 08:39:34;;;;;;;35.50;13.80;;;;;;;2.10;83.69;101380.21;105957;1271;22537;-60
2022/01/19 08:42:06;;;;;;;34.20;13.50;;;;;;;2.12;83.74;101378.65;105968;1270;25361;-59
2022/01/19 08:44:38;;;;;;;36.90;13.60;;;;;;;2.16;83.65;101376.98;105750;1271;24280;-60
2022/01/19 08:47:10;;;;;;;41.00;13.90;;;;;;;2.19;83.61;101374.85;106063;1271;22547;-59
2022/01/19 08:49:42;;;;;;;32.00;12.80;;;;;;;2.22;83.60;101363.14;105999;1271;25538;-62
2022/01/19 08:52:15;;;;;;;44.20;15.30;;;;;;;2.26;83.54;101360.85;106301;1271;22554;-60
2022/01/19 08:54:48;;;;;;;37.70;14.80;;;;;;;2.30;83.69;101357.13;105908;1271;22576;-60
2022/01/19 08:57:23;;;;;;;34.80;13.50;;;;;;;2.34;83.45;101353.98;105827;1271;22543;-60
2022/01/19 08:59:55;;;;;;;33.40;11.60;;;;;;;2.35;83.27;101352.48;105943;1270;24424;-60
2022/01/19 09:02:26;;;;;;;34.20;12.20;;;;;;;2.38;83.20;101354.99;106084;1270;25209;-62
2022/01/19 09:04:58;;;;;;;31.40;12.00;;;;;;;2.39;83.15;101348.46;106080;1271;25538;-65
2022/01/19 09:07:29;;;;;;;24.50;9.30;;;;;;;2.42;83.06;101344.13;105974;1271;22535;-59
2022/01/19 09:10:01;;;;;;;32.10;11.50;;;;;;;2.42;82.90;101340.02;105957;1271;25234;-60
2022/01/19 09:12:32;;;;;;;29.20;11.40;;;;;;;2.43;82.87;101341.61;106043;1271;25261;-61
2022/01/19 09:15:03;;;;;;;28.30;10.90;;;;;;;2.45;82.78;101349.17;106087;1271;22560;-60
2022/01/19 09:17:35;;;;;;;31.90;11.30;;;;;;;2.47;82.85;101343.33;106046;1271;25808;-62
2022/01/19 09:20:09;;;;;;;25.70;10.40;;;;;;;2.50;82.67;101343.55;106061;1271;25268;-60
2022/01/19 09:22:41;;;;;;;33.10;10.90;;;;;;;2.50;82.70;101340.41;105952;1271;22535;-62
2022/01/19 09:25:15;;;;;;;29.10;11.50;;;;;;;2.51;82.68;101340.02;105822;1270;22534;-60
2022/01/19 09:27:47;;;;;;;32.30;12.20;;;;;;;2.52;82.63;101332.68;105917;1271;23071;-60
2022/01/19 09:30:21;;;;;;;32.90;12.20;;;;;;;2.53;82.61;101326.69;105942;1271;22564;-61
2022/01/19 09:33:06;;;;;;;29.80;11.40;;;;;;;2.53;82.61;101322.20;106068;1271;24363;-61
2022/01/19 09:35:54;;;;;;;29.60;10.90;;;;;;;2.54;82.62;101314.56;105962;1271;23104;-60
2022/01/19 09:38:28;;;;;;;28.50;9.70;;;;;;;2.54;82.49;101311.81;105973;1271;25261;-62
2022/01/19 09:41:00;;;;;;;26.80;10.20;;;;;;;2.54;82.53;101307.95;106096;1271;22539;-60
2022/01/19 09:43:31;;;;;;;30.70;10.80;;;;;;;2.56;82.51;101307.46;105866;1270;22571;-60
2022/01/19 09:46:04;;;;;;;28.50;10.50;;;;;;;2.58;82.47;101302.27;105995;1271;22567;-60
2022/01/19 09:48:36;;;;;;;28.90;9.50;;;;;;;2.59;82.42;101298.79;106183;1271;25349;-60
2022/01/19 09:51:07;;;;;;;30.10;10.60;;;;;;;2.59;82.39;101295.80;106083;1271;22531;-60
2022/01/19 09:53:38;;;;;;;22.40;8.10;;;;;;;2.58;82.29;101294.95;106029;1271;22632;-61
2022/01/19 09:56:10;;;;;;;21.70;8.00;;;;;;;2.59;82.32;101291.23;105962;1271;22570;-60
2022/01/19 09:58:41;;;;;;;23.00;7.50;;;;;;;2.60;82.28;101283.98;105970;1271;25268;-60
2022/01/19 10:01:16;;;;;;;25.30;7.60;;;;;;;2.61;82.19;101278.70;105990;1271;25541;-61
2022/01/19 10:03:48;;;;;;;26.20;9.40;;;;;;;2.63;82.08;101271.06;106059;1270;22564;-60
2022/01/19 10:06:22;;;;;;;23.20;7.90;;;;;;;2.65;82.19;101272.08;106058;1270;26494;-61
2022/01/19 10:08:55;;;;;;;24.90;7.60;;;;;;;2.67;82.08;101261.98;106058;1271;25371;-60
2022/01/19 10:16:58;;;;;;;22.90;7.00;;;;;;;2.68;82.05;101259.52;105955;1270;22548;-60
2022/01/19 10:17:14;;;;;;;26.90;8.10;;;;;;;2.73;82.03;101246.20;105487;1274;25485;-60
2022/01/19 10:19:48;;;;;;;18.70;6.30;;;;;;;2.77;82.08;101240.02;105566;1277;24401;-59
2022/01/19 10:22:21;;;;;;;20.90;6.30;;;;;;;2.81;81.98;101235.52;105506;1274;22633;-62
2022/01/19 10:24:55;;;;;;;18.30;6.50;;;;;;;2.84;81.87;101228.17;105610;1274;22995;-60
2022/01/19 10:27:38;;;;;;;27.60;7.60;;;;;;;2.87;81.82;101228.55;105544;1276;25665;-62
2022/01/19 10:30:25;;;;;;;22.10;5.90;;;;;;;2.90;81.84;101223.02;105568;1276;22720;-60
2022/01/19 10:33:00;;;;;;;21.60;6.70;;;;;;;2.96;81.79;101215.98;105527;1276;25338;-59
2022/01/19 10:35:33;;;;;;;20.00;6.10;;;;;;;3.01;81.84;101211.05;105492;1274;26548;-61
2022/01/19 10:38:14;;;;;;;18.30;5.90;;;;;;;3.05;81.62;101207.95;105574;1274;25423;-59
2022/01/19 10:41:05;;;;;;;15.00;4.30;;;;;;;3.09;81.42;101201.77;105482;1276;25387;-59
2022/01/19 10:43:39;;;;;;;22.00;4.60;;;;;;;3.13;81.34;101199.62;105661;1276;22627;-60
2022/01/19 10:46:30;;;;;;;15.90;4.10;;;;;;;3.18;81.36;101190.43;105540;1274;25372;-60
2022/01/19 10:49:05;;;;;;;19.20;4.80;;;;;;;3.24;81.27;101181.95;105554;1275;22547;-59
2022/01/19 10:51:43;;;;;;;18.10;4.50;;;;;;;3.28;81.10;101174.11;105581;1275;24673;-59
2022/01/19 10:54:19;;;;;;;18.10;3.80;;;;;;;3.31;80.99;101165.25;105642;1271;24367;-61
2022/01/19 10:56:54;;;;;;;12.70;3.50;;;;;;;3.34;80.99;101163.58;106067;1270;24249;-60
2022/01/19 10:59:29;;;;;;;14.50;3.90;;;;;;;3.38;80.59;101161.10;105917;1271;24323;-62
2022/01/19 11:02:02;;;;;;;17.90;4.30;;;;;;;3.40;80.51;101151.14;106053;1270;24319;-59
2022/01/19 11:04:34;;;;;;;16.70;4.90;;;;;;;3.41;80.38;101142.38;105994;1271;22538;-61
2022/01/19 11:07:09;;;;;;;16.10;4.20;;;;;;;3.43;80.30;101131.33;106072;1270;25330;-61
2022/01/19 11:09:45;;;;;;;18.00;4.30;;;;;;;3.45;80.54;101125.15;105997;1271;22553;-60
2022/01/19 11:12:19;;;;;;;18.30;5.60;;;;;;;3.47;80.49;101124.89;106056;1271;22618;-60
2022/01/19 11:14:52;;;;;;;16.40;4.90;;;;;;;3.48;80.46;101114.86;105768;1270;22558;-61
2022/01/19 11:17:23;;;;;;;15.70;4.40;;;;;;;3.50;80.38;101107.91;106061;1270;22953;-59
2022/01/19 11:19:56;;;;;;;15.80;4.60;;;;;;;3.53;80.26;101101.02;106068;1271;24264;-60
2022/01/19 11:22:35;;;;;;;17.20;3.80;;;;;;;3.54;80.05;101096.43;106016;1270;22611;-60
2022/01/19 11:25:15;;;;;;;18.60;4.40;;;;;;;3.56;79.82;101086.07;106270;1270;25268;-62
2022/01/19 11:27:48;;;;;;;14.40;3.90;;;;;;;3.56;79.59;101077.79;105883;1270;22569;-60
2022/01/19 11:30:23;;;;;;;14.70;4.20;;;;;;;3.57;79.66;101072.17;105899;1270;22555;-61
2022/01/19 11:33:24;;;;;;;15.80;4.40;;;;;;;3.59;79.53;101074.84;105974;1271;22559;-60
2022/01/19 11:36:00;;;;;;;19.10;4.50;;;;;;;3.61;79.23;101066.45;105985;1270;26537;-62
2022/01/19 11:38:45;;;;;;;17.00;4.40;;;;;;;3.63;79.20;101059.64;105989;1271;22877;-60
2022/01/19 11:41:41;;;;;;;19.70;4.90;;;;;;;3.64;79.05;101055.61;105976;1270;25112;-62
2022/01/19 11:44:16;;;;;;;14.80;4.20;;;;;;;3.65;79.10;101048.34;106096;1271;25375;-61
2022/01/19 11:46:49;;;;;;;17.00;4.00;;;;;;;3.63;78.88;101045.91;106114;1271;25267;-60
2022/01/19 11:49:48;;;;;;;20.10;4.30;;;;;;;3.61;78.68;101044.36;105939;1271;22876;-61
2022/01/19 11:52:23;;;;;;;16.10;4.20;;;;;;;3.60;78.78;101034.27;105928;1270;25343;-62
2022/01/19 11:55:13;;;;;;;20.00;4.10;;;;;;;3.60;78.76;101026.85;105946;1271;24440;-59
2022/01/19 11:57:45;;;;;;;19.60;5.00;;;;;;;3.61;78.86;101025.67;106144;1271;24332;-61
2022/01/19 12:00:21;;;;;;;16.80;4.70;;;;;;;3.63;78.98;101024.69;105800;1270;254412;-60
2022/01/19 12:02:58;;;;;;;16.40;4.10;;;;;;;3.64;78.75;101014.56;106014;1270;24274;-61
2022/01/19 12:05:37;;;;;;;15.70;4.90;;;;;;;3.64;78.61;101008.27;105884;1271;22549;-60
2022/01/19 12:08:31;;;;;;;14.10;3.80;;;;;;;3.63;78.51;100993.54;105961;1270;25372;-60
2022/01/19 12:11:15;;;;;;;14.70;4.50;;;;;;;3.62;78.48;100983.77;106063;1270;25426;-60
2022/01/19 12:13:59;;;;;;;13.50;3.80;;;;;;;3.61;78.50;100976.92;106088;1270;22619;-60
2022/01/19 12:16:51;;;;;;;15.30;4.00;;;;;;;3.62;78.51;100964.05;106081;1270;22563;-61
2022/01/19 12:19:27;;;;;;;16.70;5.20;;;;;;;3.64;78.68;100957.14;105986;1270;22555;-60
2022/01/19 12:22:12;;;;;;;17.10;5.30;;;;;;;3.67;78.66;100948.98;106133;1270;22557;-60
2022/01/19 12:24:45;;;;;;;20.00;6.10;;;;;;;3.68;78.47;100942.73;106042;1270;23057;-61
2022/01/19 12:27:31;;;;;;;21.00;6.40;;;;;;;3.69;78.59;100933.89;106170;1270;22608;-60
2022/01/19 12:30:08;;;;;;;18.60;5.00;;;;;;;3.70;78.60;100920.70;106346;1270;25261;-60
2022/01/19 12:32:49;;;;;;;13.90;5.00;;;;;;;3.73;78.74;100915.84;106159;1270;25378;-61
2022/01/19 12:35:35;;;;;;;19.80;5.50;;;;;;;3.75;78.61;100904.85;105960;1270;25475;-60
2022/01/19 12:38:19;;;;;;;16.70;5.10;;;;;;;3.76;78.50;100901.99;106109;1271;22558;-60
2022/01/19 12:40:57;;;;;;;14.80;4.10;;;;;;;3.78;78.38;100899.45;106124;1271;24697;-60
2022/01/19 12:43:35;;;;;;;14.60;4.20;;;;;;;3.80;78.14;100895.54;106292;1270;22573;-60
2022/01/19 12:46:10;;;;;;;17.70;5.80;;;;;;;3.81;78.11;100896.08;106047;1271;26631;-59
2022/01/19 12:48:49;;;;;;;18.70;6.70;;;;;;;3.83;78.13;100896.52;106068;1271;22574;-60
2022/01/19 12:51:41;;;;;;;18.00;6.60;;;;;;;3.85;78.13;100893.41;106013;1271;25464;-62
2022/01/19 12:54:16;;;;;;;14.80;5.50;;;;;;;3.88;78.13;100886.98;105973;1270;25372;-60